createdAt,value
2022-10-12T00:01:25.876Z,10.47
2022-10-12T00:03:53.520Z,7.37
2022-10-12T00:06:23.235Z,7.63
2022-10-12T00:08:52.696Z,10.47
2022-10-12T00:11:22.500Z,5.33
2022-10-12T00:13:50.466Z,6.60
2022-10-12T00:16:21.546Z,7.87
2022-10-12T00:18:51.455Z,5.37
2022-10-12T00:21:19.447Z,6.33
2022-10-12T00:23:47.543Z,4.03
2022-10-12T00:26:17.650Z,8.77
2022-10-12T00:28:45.765Z,9.93
2022-10-12T00:31:16.041Z,5.87
2022-10-12T00:33:45.196Z,10.13
2022-10-12T00:36:15.354Z,8.77
2022-10-12T00:38:43.454Z,8.33
2022-10-12T00:41:11.665Z,5.67
2022-10-12T00:43:41.857Z,7.33
2022-10-12T00:46:15.791Z,4.77
2022-10-12T00:48:45.427Z,9.43
2022-10-12T00:51:13.222Z,5.97
2022-10-12T00:53:44.869Z,3.43
2022-10-12T00:56:14.269Z,5.03
2022-10-12T00:58:41.953Z,6.07
2022-10-12T01:01:10.478Z,4.07
2022-10-12T01:03:38.617Z,7.57
2022-10-12T01:06:08.892Z,6.97
2022-10-12T01:08:36.884Z,10.27
2022-10-12T01:11:04.927Z,8.87
2022-10-12T01:13:32.905Z,4.63
2022-10-12T01:16:06.347Z,7.13
2022-10-12T01:18:41.583Z,4.87
2022-10-12T01:21:18.447Z,6.10
2022-10-12T01:24:06.276Z,5.37
2022-10-12T01:27:10.818Z,5.13
2022-10-12T01:30:07.312Z,8.03
2022-10-12T01:32:38.862Z,8.17
2022-10-12T01:35:09.278Z,3.47
2022-10-12T01:37:44.084Z,8.27
2022-10-12T01:40:15.904Z,9.90
2022-10-12T01:42:44.505Z,6.77
2022-10-12T01:45:15.071Z,4.37
2022-10-12T01:47:44.296Z,5.47
2022-10-12T01:50:13.646Z,8.30
2022-10-12T01:52:44.454Z,8.50
2022-10-12T01:55:20.348Z,4.77
2022-10-12T01:58:07.583Z,4.70
2022-10-12T02:00:42.818Z,7.17
2022-10-12T02:03:15.657Z,7.43
2022-10-12T02:05:48.749Z,8.37
2022-10-12T02:08:19.658Z,6.60
2022-10-12T02:10:50.747Z,6.80
2022-10-12T02:13:19.969Z,8.90
2022-10-12T02:15:49.461Z,8.33
2022-10-12T02:18:19.334Z,4.73
2022-10-12T02:20:47.965Z,8.20
2022-10-12T02:23:16.156Z,5.87
2022-10-12T02:25:43.795Z,3.67
2022-10-12T02:28:13.335Z,5.20
2022-10-12T02:30:46.126Z,5.73
2022-10-12T02:33:19.675Z,5.50
2022-10-12T02:35:52.240Z,7.83
2022-10-12T02:38:22.995Z,8.77
2022-10-12T02:40:53.845Z,7.50
2022-10-12T02:43:25.105Z,4.87
2022-10-12T02:45:54.447Z,12.00
2022-10-12T02:48:24.863Z,11.10
2022-10-12T02:50:54.382Z,6.63
2022-10-12T02:53:22.493Z,5.53
2022-10-12T02:55:51.047Z,6.43
2022-10-12T02:58:19.108Z,5.83
2022-10-12T03:00:46.825Z,12.07
2022-10-12T03:03:14.503Z,5.87
2022-10-12T03:05:44.787Z,6.00
2022-10-12T03:08:12.414Z,7.63
2022-10-12T03:10:39.944Z,4.53
2022-10-12T03:13:07.475Z,4.43
2022-10-12T03:15:35.041Z,6.00
2022-10-12T03:18:02.662Z,8.30
2022-10-12T03:20:30.237Z,4.80
2022-10-12T03:22:59.077Z,5.13
2022-10-12T03:25:26.672Z,6.07
2022-10-12T03:27:54.281Z,8.77
2022-10-12T03:30:21.955Z,4.33
2022-10-12T03:32:49.527Z,7.47
2022-10-12T03:35:17.612Z,7.87
2022-10-12T03:37:45.218Z,3.60
2022-10-12T03:40:14.636Z,3.37
2022-10-12T03:42:42.228Z,4.87
2022-10-12T03:45:10.434Z,2.93
2022-10-12T03:47:38.305Z,9.40
2022-10-12T03:50:06.830Z,6.67
2022-10-12T03:52:34.468Z,6.33
2022-10-12T03:55:02.094Z,8.33
2022-10-12T03:57:31.067Z,5.37
2022-10-12T03:59:58.638Z,7.13
2022-10-12T04:02:26.185Z,5.87
2022-10-12T04:04:53.820Z,6.37
2022-10-12T04:07:21.382Z,6.23
2022-10-12T04:09:48.980Z,4.97
2022-10-12T04:12:16.525Z,5.03
2022-10-12T04:14:45.499Z,4.80
2022-10-12T04:17:13.216Z,8.17
2022-10-12T04:19:40.797Z,5.60
2022-10-12T04:22:08.387Z,7.93
2022-10-12T04:24:35.988Z,6.27
2022-10-12T04:27:03.606Z,8.03
2022-10-12T04:29:31.141Z,4.80
2022-10-12T04:32:00.144Z,10.80
2022-10-12T04:34:27.655Z,6.93
2022-10-12T04:36:55.379Z,3.93
2022-10-12T04:39:22.973Z,9.37
2022-10-12T04:41:50.526Z,5.70
2022-10-12T04:44:18.112Z,11.00
2022-10-12T04:46:45.845Z,4.17
2022-10-12T04:49:14.900Z,10.73
2022-10-12T04:51:42.471Z,3.97
2022-10-12T04:54:10.728Z,3.93
2022-10-12T04:56:38.383Z,12.43
2022-10-12T04:59:05.980Z,5.97
2022-10-12T05:01:33.628Z,4.93
2022-10-12T05:04:01.373Z,6.23
2022-10-12T05:06:30.325Z,7.07
2022-10-12T05:08:57.850Z,4.63
2022-10-12T05:11:25.507Z,5.93
2022-10-12T05:13:53.072Z,5.67
2022-10-12T05:16:20.635Z,10.20
2022-10-12T05:18:48.238Z,6.27
2022-10-12T05:21:15.833Z,3.70
2022-10-12T05:23:44.855Z,8.30
2022-10-12T05:26:12.415Z,4.07
2022-10-12T05:28:41.275Z,3.57
2022-10-12T05:31:09.100Z,6.90
2022-10-12T05:33:36.803Z,7.23
2022-10-12T05:36:04.814Z,4.70
2022-10-12T05:38:32.390Z,7.17
2022-10-12T05:41:01.462Z,6.10
2022-10-12T05:43:29.687Z,6.13
2022-10-12T05:45:57.284Z,6.90
2022-10-12T05:48:25.289Z,6.13
2022-10-12T05:50:53.855Z,6.77
2022-10-12T05:53:21.708Z,6.27
2022-10-12T05:55:53.837Z,3.17
2022-10-12T05:58:22.890Z,5.87
2022-10-12T06:00:50.493Z,7.07
2022-10-12T06:03:19.347Z,6.43
2022-10-12T06:05:47.610Z,8.20
2022-10-12T06:08:15.319Z,6.57
2022-10-12T06:10:47.254Z,5.43
2022-10-12T06:13:17.679Z,6.07
2022-10-12T06:15:47.741Z,7.10
2022-10-12T06:18:15.896Z,5.43
2022-10-12T06:20:47.478Z,11.93
2022-10-12T06:23:15.109Z,6.63
2022-10-12T06:25:42.890Z,7.37
2022-10-12T06:28:10.478Z,6.30
2022-10-12T06:30:38.089Z,4.47
2022-10-12T06:33:07.166Z,6.10
2022-10-12T06:35:34.979Z,5.40
2022-10-12T06:38:02.698Z,7.13
2022-10-12T06:40:30.404Z,6.67
2022-10-12T06:43:02.485Z,7.93
2022-10-12T06:45:30.559Z,5.37
2022-10-12T06:47:58.403Z,7.40
2022-10-12T06:50:27.641Z,3.83
2022-10-12T06:52:55.278Z,5.33
2022-10-12T06:55:22.977Z,8.23
2022-10-12T06:57:50.702Z,5.90
2022-10-12T07:00:18.719Z,6.50
2022-10-12T07:02:46.300Z,5.03
2022-10-12T07:05:13.933Z,6.93
2022-10-12T07:07:42.929Z,6.33
2022-10-12T07:10:11.428Z,8.37
2022-10-12T07:12:39.742Z,7.60
2022-10-12T07:15:08.820Z,8.67
2022-10-12T07:17:36.608Z,6.90
2022-10-12T07:20:04.988Z,7.37
2022-10-12T07:22:32.693Z,7.63
2022-10-12T07:25:01.598Z,4.43
2022-10-12T07:27:29.155Z,7.80
2022-10-12T07:29:57.219Z,8.83
2022-10-12T07:32:24.755Z,4.20
2022-10-12T07:34:52.395Z,7.20
2022-10-12T07:37:20.008Z,8.63
2022-10-12T07:39:47.660Z,8.77
2022-10-12T07:42:19.293Z,9.17
2022-10-12T07:44:47.229Z,7.27
2022-10-12T07:47:16.345Z,6.53
2022-10-12T07:49:43.932Z,6.27
2022-10-12T07:52:13.616Z,9.47
2022-10-12T07:54:41.180Z,9.27
2022-10-12T07:57:09.061Z,4.33
2022-10-12T07:59:38.204Z,9.73
2022-10-12T08:02:05.795Z,9.97
2022-10-12T08:04:33.578Z,7.63
2022-10-12T08:07:01.198Z,5.27
2022-10-12T08:09:28.780Z,8.57
2022-10-12T08:11:57.065Z,8.17
2022-10-12T08:14:24.681Z,8.70
2022-10-12T08:16:53.690Z,7.03
2022-10-12T08:19:21.493Z,6.53
2022-10-12T08:21:50.384Z,5.00
2022-10-12T08:24:17.993Z,8.73
2022-10-12T08:26:45.579Z,5.00
2022-10-12T08:29:13.210Z,8.77
2022-10-12T08:31:41.035Z,12.00
2022-10-12T08:34:09.991Z,6.40
2022-10-12T08:36:38.143Z,5.53
2022-10-12T08:39:06.892Z,8.20
2022-10-12T08:41:41.904Z,8.23
2022-10-12T08:44:34.191Z,6.97
2022-10-12T08:47:06.017Z,5.37
2022-10-12T08:49:35.799Z,5.97
2022-10-12T08:52:06.296Z,10.30
2022-10-12T08:54:38.622Z,9.00
2022-10-12T08:57:06.591Z,4.10
2022-10-12T08:59:34.434Z,7.53
2022-10-12T09:02:06.975Z,10.00
2022-10-12T09:04:48.897Z,8.33
2022-10-12T09:07:19.951Z,8.57
2022-10-12T09:09:56.845Z,9.17
2022-10-12T09:12:33.770Z,8.90
2022-10-12T09:15:07.613Z,7.53
2022-10-12T09:17:38.642Z,5.77
2022-10-12T09:20:16.613Z,6.80
2022-10-12T09:22:46.401Z,9.00
2022-10-12T09:25:15.313Z,6.97
2022-10-12T09:27:46.056Z,7.87
2022-10-12T09:30:15.817Z,10.23
2022-10-12T09:32:51.141Z,9.93
2022-10-12T09:35:20.297Z,11.00
2022-10-12T09:37:51.156Z,5.60
2022-10-12T09:40:22.761Z,6.23
2022-10-12T09:42:50.426Z,10.33
2022-10-12T09:45:20.057Z,12.60
2022-10-12T09:48:20.233Z,11.80
2022-10-12T09:50:54.971Z,9.10
2022-10-12T09:53:29.162Z,11.03
2022-10-12T09:55:59.620Z,13.00
2022-10-12T09:58:28.467Z,6.60
2022-10-12T10:01:13.222Z,7.13
2022-10-12T10:03:40.878Z,6.93
2022-10-12T10:06:09.955Z,8.13
2022-10-12T10:08:43.019Z,8.37
2022-10-12T10:11:17.691Z,9.67
2022-10-12T10:13:49.855Z,7.67
2022-10-12T10:16:18.008Z,10.83
2022-10-12T10:18:48.530Z,10.90
2022-10-12T10:21:26.026Z,10.67
2022-10-12T10:23:55.373Z,8.77
2022-10-12T10:26:24.068Z,10.07
2022-10-12T10:28:54.309Z,9.73
2022-10-12T10:31:25.233Z,13.27
2022-10-12T10:34:17.691Z,7.47
2022-10-12T10:36:48.368Z,6.17
2022-10-12T10:39:20.576Z,12.97
2022-10-12T10:41:48.459Z,9.60
2022-10-12T10:44:27.813Z,10.30
2022-10-12T10:46:56.744Z,7.83
2022-10-12T10:49:29.453Z,7.40
2022-10-12T10:51:59.727Z,7.10
2022-10-12T10:54:29.567Z,7.30
2022-10-12T10:57:02.282Z,13.47
2022-10-12T10:59:38.126Z,8.20
2022-10-12T11:02:16.147Z,10.53
2022-10-12T11:04:47.409Z,11.00
2022-10-12T11:07:21.084Z,7.27
2022-10-12T11:09:52.120Z,12.47
2022-10-12T11:12:30.261Z,9.57
2022-10-12T11:15:06.780Z,10.57
2022-10-12T11:17:35.999Z,12.93
2022-10-12T11:20:22.519Z,6.70
2022-10-12T11:22:54.650Z,7.20
2022-10-12T11:25:25.047Z,9.33
2022-10-12T11:27:53.952Z,6.50
2022-10-12T11:30:23.961Z,9.40
2022-10-12T11:32:55.401Z,5.87
2022-10-12T11:35:28.048Z,12.50
2022-10-12T11:38:00.339Z,6.33
2022-10-12T11:40:55.765Z,9.67
2022-10-12T11:43:22.501Z,6.83
2022-10-12T11:45:52.155Z,9.93
2022-10-12T11:48:27.146Z,8.07
2022-10-12T11:51:00.098Z,9.33
2022-10-12T11:53:36.251Z,9.23
2022-10-12T11:59:02.270Z,8.67
2022-10-12T12:01:38.856Z,9.30
2022-10-12T12:04:43.448Z,12.00
2022-10-12T12:07:21.308Z,9.00
2022-10-12T12:09:51.508Z,8.73
2022-10-12T12:12:22.420Z,11.13
2022-10-12T12:15:25.674Z,11.07
2022-10-12T12:18:12.521Z,7.40
2022-10-12T12:21:03.700Z,15.53
2022-10-12T12:23:37.153Z,8.60
2022-10-12T12:26:16.885Z,7.63
2022-10-12T12:28:46.248Z,11.17
2022-10-12T12:31:16.590Z,11.00
2022-10-12T12:33:46.293Z,11.23
2022-10-12T12:36:15.934Z,14.20
2022-10-12T12:38:48.664Z,12.17
2022-10-12T12:41:18.628Z,15.33
2022-10-12T12:43:57.212Z,12.77
2022-10-12T12:46:27.625Z,10.13
2022-10-12T12:49:28.802Z,12.40
2022-10-12T12:51:58.018Z,9.37
2022-10-12T12:54:25.945Z,15.33
2022-10-12T12:57:18.915Z,9.43
2022-10-12T13:00:09.843Z,12.20
2022-10-12T13:02:59.491Z,9.53
2022-10-12T13:06:10.301Z,16.67
2022-10-12T13:08:47.384Z,10.80
2022-10-12T13:11:31.230Z,10.57
2022-10-12T13:14:03.149Z,12.33
2022-10-12T13:17:30.559Z,12.63
2022-10-12T13:19:36.680Z,11.57
2022-10-12T13:22:06.867Z,13.40
2022-10-12T13:24:39.806Z,9.83
2022-10-12T13:27:21.044Z,9.63
2022-10-12T13:29:55.959Z,8.70
2022-10-12T13:32:39.020Z,11.60
2022-10-12T13:35:12.470Z,11.03
2022-10-12T13:37:41.692Z,11.13
2022-10-12T13:40:32.232Z,11.83
2022-10-12T13:43:22.075Z,10.93
2022-10-12T13:45:51.250Z,9.97
2022-10-12T13:48:39.926Z,8.27
2022-10-12T13:51:23.885Z,13.00
2022-10-12T13:53:51.934Z,10.63
2022-10-12T13:56:21.159Z,11.93
2022-10-12T13:58:48.904Z,11.47
2022-10-12T14:01:18.182Z,10.43
2022-10-12T14:03:46.631Z,10.20
2022-10-12T14:06:28.684Z,8.23
2022-10-12T14:08:57.237Z,10.70
2022-10-12T14:11:26.235Z,10.77
2022-10-12T14:13:54.300Z,11.00
2022-10-12T14:16:24.248Z,10.07
2022-10-12T14:18:52.329Z,10.07
2022-10-12T14:21:23.949Z,12.13
2022-10-12T14:23:54.487Z,9.77
2022-10-12T14:26:29.129Z,11.73
2022-10-12T14:28:58.328Z,8.60
2022-10-12T14:31:52.211Z,12.97
2022-10-12T14:34:40.755Z,9.07
2022-10-12T14:37:22.204Z,15.20
2022-10-12T14:39:52.289Z,9.97
2022-10-12T14:42:21.861Z,8.23
2022-10-12T14:44:50.790Z,8.33
2022-10-12T14:47:23.384Z,9.43
2022-10-12T14:49:53.068Z,9.23
2022-10-12T14:52:23.068Z,8.87
2022-10-12T14:54:52.780Z,13.17
2022-10-12T14:57:21.554Z,9.10
2022-10-12T14:59:50.354Z,9.23
2022-10-12T15:02:21.457Z,6.57
2022-10-12T15:04:50.732Z,11.70
2022-10-12T15:07:21.703Z,11.03
2022-10-12T15:09:50.623Z,11.73
2022-10-12T15:12:20.409Z,12.77
2022-10-12T15:14:49.603Z,10.87
2022-10-12T15:17:20.355Z,11.67
2022-10-12T15:19:49.678Z,10.27
2022-10-12T15:22:19.684Z,7.77
2022-10-12T15:24:48.349Z,9.07
2022-10-12T15:27:16.854Z,7.63
2022-10-12T15:29:45.845Z,11.53
2022-10-12T15:32:15.262Z,9.00
2022-10-12T15:34:44.919Z,13.10
2022-10-12T15:37:21.891Z,10.57
2022-10-12T15:39:49.459Z,12.03
2022-10-12T15:42:17.051Z,11.20
2022-10-12T15:44:44.636Z,11.47
2022-10-12T15:47:12.415Z,14.10
2022-10-12T15:49:40.071Z,15.27
2022-10-12T15:52:07.814Z,15.87
2022-10-12T15:54:36.766Z,8.27
2022-10-12T15:57:04.360Z,12.87
2022-10-12T15:59:32.089Z,14.10
2022-10-12T16:02:02.311Z,10.33
2022-10-12T16:04:30.064Z,19.67
2022-10-12T16:07:06.062Z,11.17
2022-10-12T16:09:33.715Z,13.10
2022-10-12T16:12:02.676Z,13.63
2022-10-12T16:14:30.200Z,13.50
2022-10-12T16:17:05.752Z,9.63
2022-10-12T16:19:33.688Z,10.03
2022-10-12T16:22:03.269Z,13.87
2022-10-12T16:24:30.947Z,15.87
2022-10-12T16:26:58.477Z,15.50
2022-10-12T16:29:27.825Z,12.33
2022-10-12T16:31:55.468Z,16.50
2022-10-12T16:34:23.514Z,9.17
2022-10-12T16:36:51.155Z,20.70
2022-10-12T16:39:19.183Z,17.77
2022-10-12T16:41:48.089Z,14.40
2022-10-12T16:44:15.675Z,18.60
2022-10-12T16:46:44.633Z,14.43
2022-10-12T16:49:12.408Z,20.33
2022-10-12T16:51:39.973Z,16.13
2022-10-12T16:54:07.535Z,12.57
2022-10-12T16:56:39.250Z,16.07
2022-10-12T16:59:07.678Z,11.27
2022-10-12T17:01:35.294Z,14.50
2022-10-12T17:04:04.226Z,10.63
2022-10-12T17:06:31.884Z,18.17
2022-10-12T17:08:59.786Z,15.10
2022-10-12T17:11:27.392Z,15.50
2022-10-12T17:13:56.113Z,16.87
2022-10-12T17:16:42.029Z,19.13
2022-10-12T17:19:10.986Z,15.53
2022-10-12T17:21:42.044Z,19.13
2022-10-12T17:24:10.681Z,17.47
2022-10-12T17:26:40.923Z,13.60
2022-10-12T17:29:10.383Z,13.20
2022-10-12T17:31:38.019Z,19.83
2022-10-12T17:34:07.118Z,11.87
2022-10-12T17:36:36.268Z,16.47
2022-10-12T17:39:03.911Z,11.97
2022-10-12T17:41:31.508Z,15.77
2022-10-12T17:43:59.316Z,11.87
2022-10-12T17:46:29.069Z,12.37
2022-10-12T17:48:56.924Z,13.43
2022-10-12T17:51:24.443Z,17.70
2022-10-12T17:53:53.521Z,16.03
2022-10-12T17:56:21.070Z,16.10
2022-10-12T17:58:48.690Z,12.67
2022-10-12T18:01:17.172Z,13.47
2022-10-12T18:03:47.031Z,16.47
2022-10-12T18:06:16.312Z,14.43
2022-10-12T18:08:44.606Z,12.37
2022-10-12T18:11:13.978Z,14.87
2022-10-12T18:13:42.022Z,12.97
2022-10-12T18:16:11.893Z,15.97
2022-10-12T18:18:40.072Z,18.33
2022-10-12T18:21:08.321Z,15.37
2022-10-12T18:23:36.074Z,13.33
2022-10-12T18:26:04.697Z,16.03
2022-10-12T18:28:33.690Z,15.47
2022-10-12T18:31:01.329Z,16.63
2022-10-12T18:33:29.226Z,13.23
2022-10-12T18:35:57.147Z,20.13
2022-10-12T18:38:24.772Z,17.60
2022-10-12T18:40:52.262Z,17.60
2022-10-12T18:43:20.234Z,14.23
2022-10-12T18:45:49.079Z,15.40
2022-10-12T18:48:17.461Z,17.40
2022-10-12T18:50:45.316Z,17.03
2022-10-12T18:53:13.073Z,14.33
2022-10-12T18:55:40.596Z,24.07
2022-10-12T18:58:08.443Z,16.07
2022-10-12T19:00:36.068Z,17.90
2022-10-12T19:03:05.239Z,15.73
2022-10-12T19:05:32.841Z,16.13
2022-10-12T19:08:00.684Z,19.97
2022-10-12T19:10:28.267Z,15.03
2022-10-12T19:12:55.982Z,17.53
2022-10-12T19:15:23.601Z,18.43
2022-10-12T19:17:51.366Z,16.00
2022-10-12T19:20:20.570Z,19.77
2022-10-12T19:22:48.123Z,18.63
2022-10-12T19:25:16.352Z,15.13
2022-10-12T19:27:43.821Z,17.67
2022-10-12T19:30:12.286Z,16.10
2022-10-12T19:32:41.323Z,23.47
2022-10-12T19:35:09.475Z,19.33
2022-10-12T19:37:38.504Z,15.10
2022-10-12T19:40:07.942Z,19.97
2022-10-12T19:42:35.734Z,19.20
2022-10-12T19:45:03.379Z,17.63
2022-10-12T19:47:30.935Z,17.37
2022-10-12T19:49:58.540Z,22.70
2022-10-12T19:52:26.099Z,17.33
2022-10-12T19:54:54.993Z,17.57
2022-10-12T19:57:23.645Z,16.43
2022-10-12T19:59:51.371Z,16.30
2022-10-12T20:02:19.644Z,21.20
2022-10-12T20:04:53.627Z,20.83
2022-10-12T20:07:21.994Z,15.80
2022-10-12T20:09:49.682Z,19.70
2022-10-12T20:12:18.895Z,20.97
2022-10-12T20:14:46.677Z,17.70
2022-10-12T20:17:14.260Z,16.60
2022-10-12T20:19:41.880Z,15.83
2022-10-12T20:22:09.523Z,18.53
2022-10-12T20:24:37.800Z,17.93
2022-10-12T20:27:05.556Z,16.27
2022-10-12T20:29:34.520Z,20.03
2022-10-12T20:32:02.277Z,14.23
2022-10-12T20:34:30.055Z,18.57
2022-10-12T20:36:57.651Z,18.37
2022-10-12T20:39:25.463Z,13.53
2022-10-12T20:41:53.007Z,13.30
2022-10-12T20:44:20.688Z,16.90
2022-10-12T20:46:50.608Z,13.03
2022-10-12T20:49:18.375Z,12.40
2022-10-12T20:51:46.236Z,13.00
2022-10-12T20:54:14.860Z,15.83
2022-10-12T20:56:43.527Z,13.67
2022-10-12T20:59:11.665Z,17.77
2022-10-12T21:01:39.426Z,12.90
2022-10-12T21:04:10.086Z,14.63
2022-10-12T21:06:38.169Z,16.40
2022-10-12T21:09:06.735Z,13.57
2022-10-12T21:11:34.853Z,16.10
2022-10-12T21:14:02.431Z,17.03
2022-10-12T21:16:30.129Z,17.80
2022-10-12T21:18:57.709Z,18.00
2022-10-12T21:21:26.840Z,15.90
2022-10-12T21:23:55.722Z,12.53
2022-10-12T21:26:24.853Z,10.77
2022-10-12T21:28:52.744Z,13.10
2022-10-12T21:31:21.075Z,15.43
2022-10-12T21:33:48.836Z,17.67
2022-10-12T21:36:19.655Z,19.00
2022-10-12T21:38:48.967Z,12.93
2022-10-12T21:41:17.636Z,16.87
2022-10-12T21:43:45.610Z,18.40
2022-10-12T21:46:15.247Z,12.03
2022-10-12T21:48:42.929Z,13.80
2022-10-12T21:51:11.258Z,15.93
2022-10-12T21:53:39.981Z,17.43
2022-10-12T21:56:10.293Z,18.97
2022-10-12T21:58:37.904Z,11.47
2022-10-12T22:01:07.788Z,14.10
2022-10-12T22:03:35.557Z,15.13
2022-10-12T22:06:04.213Z,13.30
2022-10-12T22:08:31.956Z,15.10
2022-10-12T22:11:06.386Z,14.00
2022-10-12T22:13:35.793Z,16.03
2022-10-12T22:16:07.369Z,14.93
2022-10-12T22:18:35.073Z,14.87
2022-10-12T22:21:06.643Z,18.57
2022-10-12T22:23:34.978Z,15.73
2022-10-12T22:26:03.279Z,17.20
2022-10-12T22:28:31.425Z,19.40
2022-10-12T22:31:00.475Z,18.17
2022-10-12T22:33:28.360Z,18.87
2022-10-12T22:35:58.716Z,13.00
2022-10-12T22:38:26.764Z,15.97
2022-10-12T22:40:58.112Z,14.07
2022-10-12T22:43:26.339Z,21.97
2022-10-12T22:45:54.825Z,15.47
2022-10-12T22:48:24.453Z,17.27
2022-10-12T22:54:39.531Z,15.67
2022-10-12T22:57:07.067Z,17.87
2022-10-12T22:59:34.593Z,16.77
2022-10-12T23:02:02.098Z,17.33
2022-10-12T23:04:31.057Z,19.00
2022-10-12T23:06:58.615Z,17.93
2022-10-12T23:09:26.174Z,18.27
2022-10-12T23:11:53.706Z,21.83
2022-10-12T23:14:21.385Z,16.67
2022-10-12T23:16:48.906Z,16.97
2022-10-12T23:19:16.448Z,17.30
2022-10-12T23:21:45.504Z,15.27
2022-10-12T23:24:13.069Z,15.13
2022-10-12T23:26:40.570Z,17.07
2022-10-12T23:29:08.152Z,19.23
2022-10-12T23:31:36.335Z,16.47
2022-10-12T23:34:05.506Z,19.97
2022-10-12T23:36:33.500Z,17.50
2022-10-12T23:39:03.259Z,17.50
2022-10-12T23:41:30.805Z,17.77
2022-10-12T23:43:58.401Z,15.10
2022-10-12T23:46:25.961Z,16.93
2022-10-12T23:48:53.487Z,15.53
2022-10-12T23:51:21.094Z,18.07
2022-10-12T23:53:48.674Z,18.23
2022-10-12T23:56:17.609Z,23.33
2022-10-12T23:58:45.149Z,22.70
